Terminal Aerodrome Forecast
Issued by NWS Twin Cities, MN

Home | Current Version | Previous Version | Graphics & Text | Print | Product List | Glossary On
Versions: 1 2 3 4 5 6 7 8 9 10 11 12 13 14 15 16 17 18 19 20 21 22 23 24 25 26 27 28 29
000
FTUS43 KMPX 211700
TAFMSP
TAF
KMSP 211724Z 2118/2224 16012G20KT P6SM SCT050 SCT250
     FM220000 15011KT P6SM SCT050 BKN200
     FM220600 15008KT 6SM HZ BKN040 BKN100 PROB30 2206/2210 4SM TSRA
      BKN035CB
     FM221400 28013G19KT P6SM SCT030
     FM222000 31016G24KT P6SM SCT040 SCT250=

USA.gov is the U.S. government's official web portal to all federal, state and local government web resources and services.